To NAV CANADA Home Page Login to a new session Search on AWWS site Feedback and Comments Disclaimer Vers la page française équivalente Tips FAQ What's new on the site To the Forecasts and Observations / NOTAM section To "File a Flight Plan" website Publications and other links Update of the User's profile FIC Telephone Numbers My Weather Data Folder Route Weather Data Regional Weather Data Local Weather Data To the Forecasts and Observations / NOTAM section
Request Generated 03/28/2017 at 02:25:43 UTC . Weather information available at that time is displayed.

METAR/TAF

TORONTO/LESTER B. PEARSON INTL/ON    

METAR CYYZ 280200Z 24005KT 15SM FEW018 OVC030 12/10 A2988 RMK SC2SC6
SLP124=
METAR CYYZ 280100Z 25004KT 15SM BKN028 OVC080 12/10 A2989 RMK SC6AC2
SLP126=
METAR CYYZ 280000Z 27006KT 15SM OVC032 13/10 A2988 RMK SC8 SLP122=

TAF CYYZ 272338Z 2800/2906 27008KT P6SM BKN015 TEMPO 2800/2803 BKN025
FM280300 31006KT P6SM OVC020
FM280900 35008KT P6SM BKN006 OVC015
FM281400 35015KT P6SM BKN012 OVC025
FM282000 34015KT P6SM FEW020
BECMG 2902/2904 34010KT
RMK NXT FCST BY 280300Z=
Your time UTC time
Weather data provided by Environment Canada and NAV CANADA